Weather observations for the past three days for
Wendover Airport
Metric (Imperial)
Date Time (mdt) Wind (kph) Vis. (km) Weather Sky Cond. Temperature (ºC) Relative Humidity Wind Chill (°C) Heat Index (°C) Pressure Precipitation (cm)
Air Dwpt 6 hour altimeter (cm) sea level (mb) 1 hr 3 hr 6 hr
Max. Min.
04 02:56 Calm 16.09 Fair CLR 11.7 -6.7 27% 75.72 1006.9
04 01:56 Calm 16.09 Fair CLR 11.1 -6.7 28% 75.72 1007.3
04 00:56 Calm 16.09 Fair CLR 11.7 -6.7 27% 75.74 1007.3
03 23:56 Calm 16.09 Fair CLR 15 -6.1 23.3 13.3 23% 75.74 1007.2
03 22:56 E 7 16.09 Fair CLR 14.4 -5.6 25% 75.74 1007.4
03 21:56 Calm 16.09 Fair CLR 17.2 -7.2 18% 75.74 1007.3
03 20:56 NW 11 16.09 Fair CLR 20 -7.8 15% 75.74 1007.0
03 19:56 NE 7 16.09 Fair CLR 21.7 -8.3 13% 75.74 1007.0
03 18:56 NE 13 16.09 Fair CLR 22.8 -8.9 11% 75.77 1007.9
03 17:56 E 13 16.09 Fair CLR 23.3 -8.9 23.3 19.4 11% 75.82 1008.3
03 16:56 E 11 16.09 Fair CLR 22.8 -8.9 11% 75.87 1008.8
03 15:56 E 11 16.09 Fair CLR 22.8 -7.2 13% 75.95 1010.0
03 14:56 E 13 16.09 Fair CLR 22.8 -6.7 13% 76.02 1010.7
03 13:56 E 13 16.09 Fair CLR 21.1 -7.2 14% 76.1 1011.8
03 12:56 E 13 16.09 Fair CLR 21.1 -5.6 16% 76.15 1012.6
03 11:56 E 13 16.09 Fair CLR 19.4 -4.4 19.4 8.3 20% 76.23 1013.3
03 10:56 E 11 16.09 Fair CLR 19.4 -5.6 18% 76.23 1013.7
03 09:56 SE 7 16.09 Fair CLR 17.2 -4.4 23% 76.25 1014.2
03 08:56 SE 6 16.09 Fair CLR 15.6 -4.4 25% 76.25 1014.2
03 07:56 W 7 16.09 Fair CLR 13.3 -4.4 29% 76.25 1014.1
03 06:56 SW 7 16.09 Fair CLR 10 -4.4 36% 9 76.23 1013.9
03 05:56 Calm 16.09 Fair CLR 9.4 -6.7 17.8 9.4 32% 76.2 1013.6
03 04:56 W 6 16.09 Fair CLR 12.2 -5.6 29% 76.23 1013.5
03 03:56 SW 9 16.09 Fair CLR 11.7 -6.1 28% 76.23 1014.0
03 02:56 NE 13 16.09 Fair CLR 13.9 -5 27% 76.25 1013.6
03 01:56 NE 9 16.09 Fair CLR 14.4 -5.6 25% 76.28 1014.4
03 00:56 Calm 16.09 Fair CLR 15 -5.6 24% 76.28 1014.6
02 23:56 NE 7 16.09 Fair CLR 17.8 -7.2 23.9 15.6 18% 76.28 1014.3
02 22:56 N 7 16.09 Fair CLR 17.2 -8.3 17% 76.25 1014.3
02 21:56 NE 9 16.09 Fair CLR 17.2 -7.8 17% 76.25 1014.4
02 20:56 E 9 16.09 Fair CLR 18.9 -6.1 18% 76.2 1013.9
02 19:56 E 13 16.09 Fair CLR 21.7 -9.4 12% 76.2 1013.9
02 18:56 E 13 16.09 Fair CLR 23.3 -9.4 10% 76.2 1014.3
02 17:56 E 15 16.09 Fair CLR 23.9 -8.9 24.4 17.8 10% 24 76.23 1014.6
02 16:56 E 17 16.09 Fair CLR 24.4 -8.3 11% 24 76.28 1014.9
02 15:56 NE 11 16.09 Fair CLR 22.8 -8.3 12% 76.35 1016.0
02 14:56 E 15 16.09 Fair CLR 23.3 -8.9 11% 76.43 1017.3
02 13:56 NE 17 16.09 Fair CLR 21.1 -8.9 12% 76.48 1018.2
02 12:56 E 13 16.09 Fair CLR 19.4 -10 13% 76.56 1019.2
02 11:56 E 17 16.09 Fair CLR 17.8 -8.9 17.8 3.9 15% 76.61 1019.9
02 10:56 E 19 16.09 Fair CLR 15.6 -8.9 18% 76.63 1020.4
02 09:56 E 15 16.09 Fair CLR 13.9 -8.3 21% 76.63 1020.2
02 08:56 NE 17 16.09 Fair CLR 11.7 -5.6 30% 76.63 1020.2
02 07:56 Calm 16.09 Fair CLR 8.3 -8.3 30% 76.63 1020.5
02 06:56 Calm 16.09 Fair CLR 5 -8.9 36% 76.58 1020.1
02 05:56 SW 7 16.09 Fair CLR 5 -8.9 10 3.9 36% 4 76.58 1019.9
02 04:56 Calm 16.09 Fair CLR 5 -10.6 32% 76.58 1019.9
02 03:56 Calm 16.09 Fair CLR 6.7 -9.4 31% 76.56 1019.5
02 02:56 Calm 16.09 Fair CLR 5 -11.1 30% 76.58 1019.9
02 01:56 Calm 16.09 Fair CLR 7.2 -10 29% 76.61 1019.9
02 00:56 Calm 16.09 Fair CLR 7.8 -10 27% 76.58 1019.9
01 23:56 W 9 16.09 Fair CLR 10 -9.4 20.6 9.4 25% 9 76.58 1019.6
01 22:56 NW 11 16.09 Fair CLR 11.1 -11.7 19% 76.56 1019.5
01 21:56 Calm 16.09 Fair CLR 15 -7.8 20% 76.56 1018.9
01 20:56 E 9 16.09 Fair CLR 16.1 -9.4 17% 76.5 1018.2
01 19:56 E 9 16.09 Fair CLR 18.3 -10 14% 76.48 1017.8
01 18:56 E 15 16.09 Fair CLR 19.4 -8.3 15% 76.48 1017.7
01 17:56 E 15 16.09 Fair CLR 20 -7.8 20.6 16.7 15% 76.5 1017.8
01 16:56 SE 15 16.09 Fair CLR 20.6 -7.8 14% 76.5 1018.0
01 15:56 SE 15 G 28 16.09 Fair CLR 19.4 -7.2 16% 76.58 1018.9
01 14:56 E 13 16.09 Fair CLR 19.4 -6.1 17% 76.61 1019.4
01 13:56 E 19 16.09 Fair CLR 18.9 -5.6 19% 76.61 1019.5
01 12:56 SE 13 16.09 Fair CLR 18.3 -3.9 22% 76.66 1020.1
01 11:56 SE 9 16.09 Fair CLR 17.2 -4.4 17.2 10 23% 76.68 1020.6
01 10:56 NE 17 G 26 16.09 Fair CLR 15.6 -3.9 26% 76.71 1021.1
01 09:56 N 13 16.09 Fair CLR 15 -3.9 27% 76.68 1020.8
01 08:56 N 22 G 30 16.09 Fair CLR 13.9 -5.6 26% 76.63 1020.3
01 07:56 Vrbl 6 16.09 Fair CLR 12.2 -7.2 25% 76.61 1019.8
01 06:56 Vrbl 7 16.09 Fair CLR 11.1 -8.9 24% 76.56 1019.2
01 05:56 N 13 16.09 Fair CLR 11.7 -10 13.9 11.7 21% 76.5 1018.2
01 04:56 N 17 16.09 Fair CLR 12.2 -10 20% 76.5 1018.0
01 03:56 N 20 16.09 Fair CLR 12.8 -10.6 19% 76.48 1017.8
Date Time (mdt) Wind (kph) Vis. (km) Weather Sky Cond. Air Dwpt Max. Min. Relative Humidity Wind Chill (°C) Heat Index (°C) altimeter (cm) sea level (mb) 1 hr 3 hr 6 hr
6 hour
Temperature (ºC) Pressure Precipitation (cm)